Time;durP1;ratioP1;P1;durP2;ratioP2;P2;SDS_P1;SDS_P2;PMS_P1;PMS_P2;Temp;Humidity;BMP_temperature;BMP_pressure;BME280_temperature;BME280_humidity;BME280_pressure;Samples;Min_cycle;Max_cycle;Signal;HPM_P1;HPM_P2
2021/06/10 00:00:14;;;;;;;15.37;13.77;;;22.10;99.90;;;;;;5066274;28;20457;-74
2021/06/10 00:02:40;;;;;;;15.73;14.33;;;22.10;99.90;;;;;;5070100;28;20460;-75
2021/06/10 00:05:08;;;;;;;16.60;15.00;;;22.10;99.90;;;;;;5068032;28;20457;-74
2021/06/10 00:07:34;;;;;;;16.53;14.83;;;22.10;99.90;;;;;;5069233;28;20271;-75
2021/06/10 00:10:00;;;;;;;15.60;14.10;;;22.10;99.90;;;;;;5084631;28;20452;-74
2021/06/10 00:12:26;;;;;;;16.57;14.87;;;22.10;99.90;;;;;;5086280;28;20221;-74
2021/06/10 00:14:53;;;;;;;14.83;13.20;;;22.10;99.90;;;;;;5065800;28;20450;-75
2021/06/10 00:17:19;;;;;;;15.83;14.30;;;22.10;99.90;;;;;;5049725;28;20230;-74
2021/06/10 00:19:44;;;;;;;17.87;15.67;;;22.10;99.90;;;;;;5049852;28;20464;-74
2021/06/10 00:22:10;;;;;;;15.30;13.70;;;22.10;99.90;;;;;;5066084;28;20457;-75
2021/06/10 00:24:36;;;;;;;16.73;15.13;;;22.00;99.90;;;;;;5064674;28;20613;-74
2021/06/10 00:27:02;;;;;;;18.13;16.37;;;22.00;99.90;;;;;;5083505;28;20221;-75
2021/06/10 00:29:28;;;;;;;15.77;14.33;;;22.00;99.90;;;;;;5066232;28;20234;-75
2021/06/10 00:31:53;;;;;;;17.67;15.77;;;21.90;99.90;;;;;;5048074;28;20563;-75
2021/06/10 00:34:19;;;;;;;19.40;16.37;;;21.80;99.90;;;;;;5049494;28;20225;-75
2021/06/10 00:36:45;;;;;;;16.97;15.40;;;21.70;99.90;;;;;;5083832;28;20230;-74
2021/06/10 00:39:11;;;;;;;16.97;15.37;;;21.70;99.90;;;;;;5084610;28;20222;-75
2021/06/10 00:41:37;;;;;;;15.80;14.20;;;21.60;99.90;;;;;;5069772;28;20224;-75
2021/06/10 00:44:07;;;;;;;19.07;17.07;;;21.60;99.90;;;;;;5050687;28;20726;-75
2021/06/10 00:46:33;;;;;;;17.47;15.77;;;21.60;99.90;;;;;;5049469;28;20505;-75
2021/06/10 00:49:00;;;;;;;17.27;15.57;;;21.50;99.90;;;;;;5051954;28;20464;-75
2021/06/10 00:51:26;;;;;;;18.20;16.30;;;21.50;99.90;;;;;;5053630;28;20464;-75
2021/06/10 00:53:52;;;;;;;20.73;18.37;;;21.30;99.90;;;;;;5064282;28;20465;-74
2021/06/10 00:56:18;;;;;;;17.90;16.00;;;21.30;99.90;;;;;;5073581;28;20279;-74
2021/06/10 00:58:44;;;;;;;19.17;15.97;;;21.20;99.90;;;;;;5072955;28;20287;-75
2021/06/10 01:01:09;;;;;;;16.53;14.70;;;21.30;99.90;;;;;;5051905;28;20273;-74
2021/06/10 01:03:36;;;;;;;16.93;15.30;;;21.30;99.90;;;;;;5036664;28;20223;-74
2021/06/10 01:09:45;;;;;;;15.80;14.13;;;21.40;99.90;;;;;;5069937;28;20491;-74
2021/06/10 01:12:40;;;;;;;15.77;14.17;;;21.40;99.90;;;;;;5084994;28;20456;-74
2021/06/10 01:15:12;;;;;;;14.60;13.17;;;21.40;99.90;;;;;;5051714;28;20914;-74
2021/06/10 01:17:43;;;;;;;15.20;13.60;;;21.40;99.90;;;;;;5073864;28;20479;-74
2021/06/10 01:20:12;;;;;;;15.07;13.60;;;21.40;99.90;;;;;;5083183;28;20456;-75
2021/06/10 01:23:01;;;;;;;15.60;12.93;;;21.40;99.90;;;;;;5086759;28;20548;-74
2021/06/10 01:25:42;;;;;;;15.50;14.07;;;21.40;99.90;;;;;;5098259;28;20447;-74
2021/06/10 01:28:15;;;;;;;16.23;14.63;;;21.40;99.90;;;;;;5083090;28;20456;-75
2021/06/10 01:30:52;;;;;;;15.57;14.00;;;21.40;99.90;;;;;;5069729;28;20551;-75
2021/06/10 01:33:40;;;;;;;15.83;14.37;;;21.30;99.90;;;;;;5086230;28;20960;-75
2021/06/10 01:36:11;;;;;;;15.47;14.07;;;21.30;99.90;;;;;;5078821;28;20585;-75
2021/06/10 01:38:39;;;;;;;16.77;15.07;;;21.30;99.90;;;;;;5053164;28;20457;-75
2021/06/10 01:41:06;;;;;;;16.60;15.03;;;21.30;99.90;;;;;;5051062;28;20473;-74
2021/06/10 01:43:36;;;;;;;16.33;14.73;;;21.30;99.90;;;;;;5069158;28;20488;-74
2021/06/10 01:46:04;;;;;;;17.50;15.60;;;21.20;99.90;;;;;;5067683;28;20461;-74
2021/06/10 01:48:32;;;;;;;15.80;14.30;;;21.10;99.90;;;;;;5069504;28;20461;-75
2021/06/10 01:51:00;;;;;;;15.97;14.37;;;21.10;99.90;;;;;;5050962;28;20456;-74
2021/06/10 01:53:27;;;;;;;17.87;15.63;;;21.10;99.90;;;;;;5079121;28;20552;-74
2021/06/10 01:55:56;;;;;;;17.53;13.97;;;21.00;99.90;;;;;;5045585;28;20484;-74
2021/06/10 01:58:22;;;;;;;16.43;14.87;;;21.00;99.90;;;;;;5072054;28;20455;-74
2021/06/10 02:00:50;;;;;;;17.10;15.40;;;21.00;99.90;;;;;;5088802;28;20871;-74
2021/06/10 02:03:17;;;;;;;18.17;16.30;;;21.00;99.90;;;;;;5070213;28;20947;-74
2021/06/10 02:05:54;;;;;;;17.57;15.77;;;21.00;99.90;;;;;;5072346;28;20464;-75
2021/06/10 02:08:20;;;;;;;18.50;16.10;;;20.90;99.90;;;;;;5072165;28;20535;-75
2021/06/10 02:10:51;;;;;;;19.53;17.37;;;20.90;99.90;;;;;;5072306;28;20456;-75
2021/06/10 02:13:18;;;;;;;18.67;16.80;;;20.80;99.90;;;;;;5069855;28;20464;-74
2021/06/10 02:15:45;;;;;;;19.27;17.27;;;20.90;99.90;;;;;;5088938;28;20504;-74
2021/06/10 02:18:13;;;;;;;17.40;15.67;;;20.80;99.90;;;;;;5070462;28;21083;-74
2021/06/10 02:20:39;;;;;;;18.50;16.53;;;20.70;99.90;;;;;;5052247;28;20449;-75
2021/06/10 02:23:06;;;;;;;18.37;15.77;;;20.70;99.90;;;;;;5069465;28;20512;-73
2021/06/10 02:25:33;;;;;;;20.43;18.20;;;20.60;99.90;;;;;;5071869;28;20495;-75
2021/06/10 02:27:59;;;;;;;20.07;18.10;;;20.50;99.90;;;;;;5086255;28;20597;-74
2021/06/10 02:30:25;;;;;;;21.83;18.00;;;20.50;99.90;;;;;;5088579;28;20456;-74
2021/06/10 02:32:50;;;;;;;18.77;16.77;;;20.50;99.90;;;;;;5071132;28;20459;-74
2021/06/10 02:35:17;;;;;;;18.93;15.50;;;20.50;99.90;;;;;;5087033;28;20460;-74
2021/06/10 02:37:46;;;;;;;18.00;16.07;;;20.50;99.90;;;;;;5071858;28;20600;-74
2021/06/10 02:40:16;;;;;;;18.27;16.30;;;20.50;99.90;;;;;;5069964;28;20476;-75
2021/06/10 02:42:43;;;;;;;18.17;15.97;;;20.50;99.90;;;;;;5087011;28;20553;-74
2021/06/10 02:45:10;;;;;;;17.33;15.60;;;20.50;99.90;;;;;;5087396;28;20460;-74
2021/06/10 02:47:38;;;;;;;16.40;14.70;;;20.50;99.90;;;;;;5108605;28;20839;-74
2021/06/10 02:50:06;;;;;;;17.27;15.20;;;20.50;99.90;;;;;;5073162;28;20459;-74
2021/06/10 02:52:35;;;;;;;18.20;15.70;;;20.50;99.90;;;;;;5090497;28;20467;-74
2021/06/10 02:55:01;;;;;;;16.97;15.27;;;20.50;99.90;;;;;;5052685;28;20453;-75
2021/06/10 02:57:27;;;;;;;16.13;14.43;;;20.50;99.90;;;;;;5040122;28;20992;-73
2021/06/10 02:59:54;;;;;;;17.63;14.20;;;20.50;99.90;;;;;;5076346;28;20214;-74
2021/06/10 03:02:20;;;;;;;15.97;14.33;;;20.50;99.90;;;;;;5040496;28;20524;-74
2021/06/10 03:05:04;;;;;;;16.33;14.70;;;20.50;99.90;;;;;;5034481;28;20545;-74
2021/06/10 03:07:30;;;;;;;16.07;13.80;;;20.50;99.90;;;;;;5084357;28;20457;-74
2021/06/10 03:09:56;;;;;;;15.97;14.40;;;20.50;99.90;;;;;;5072141;28;20467;-74
2021/06/10 03:12:22;;;;;;;18.13;15.17;;;20.50;99.90;;;;;;5071107;28;20226;-74
2021/06/10 03:14:48;;;;;;;19.73;17.10;;;20.40;99.90;;;;;;5064251;28;20511;-74
2021/06/10 03:17:17;;;;;;;19.60;17.47;;;20.40;99.90;;;;;;5086014;28;20480;-75
2021/06/10 03:19:43;;;;;;;18.60;16.50;;;20.30;99.90;;;;;;5087841;28;20256;-74
2021/06/10 03:22:10;;;;;;;19.50;17.40;;;20.30;99.90;;;;;;5068827;28;20873;-74
2021/06/10 03:24:37;;;;;;;17.63;15.57;;;20.30;99.90;;;;;;5070423;28;20465;-74
2021/06/10 03:27:05;;;;;;;17.67;15.80;;;20.30;99.90;;;;;;5068842;28;20488;-74
2021/06/10 03:29:31;;;;;;;17.20;15.27;;;20.30;99.90;;;;;;5070327;28;20478;-75
2021/06/10 03:31:58;;;;;;;19.83;16.73;;;20.30;99.90;;;;;;5085940;28;20548;-74
2021/06/10 03:34:24;;;;;;;19.23;15.63;;;20.30;99.90;;;;;;5070512;28;20218;-74
2021/06/10 03:36:51;;;;;;;19.00;17.07;;;20.30;99.90;;;;;;5087460;28;20960;-75
2021/06/10 03:39:20;;;;;;;27.27;22.47;;;20.20;99.90;;;;;;5069829;28;20843;-74
2021/06/10 03:41:46;;;;;;;24.60;20.37;;;20.20;99.90;;;;;;5087426;28;20457;-74
2021/06/10 03:44:14;;;;;;;20.70;18.07;;;20.20;99.90;;;;;;5085670;28;20465;-75
2021/06/10 03:46:41;;;;;;;22.43;18.70;;;20.10;99.90;;;;;;5050686;28;21139;-74
2021/06/10 03:49:09;;;;;;;24.00;19.17;;;20.10;99.90;;;;;;5085558;28;20456;-74
2021/06/10 03:51:35;;;;;;;25.47;18.97;;;20.10;99.90;;;;;;5086532;28;20465;-74
2021/06/10 03:54:01;;;;;;;30.20;20.07;;;20.00;99.90;;;;;;5068430;28;20457;-74
2021/06/10 03:56:26;;;;;;;21.80;19.37;;;20.00;99.90;;;;;;5066286;28;20708;-74
2021/06/10 03:58:52;;;;;;;18.53;16.13;;;20.00;99.90;;;;;;5048923;28;20625;-74
2021/06/10 04:01:18;;;;;;;21.20;18.50;;;19.90;99.90;;;;;;5067437;28;20223;-74
2021/06/10 04:03:43;;;;;;;24.10;19.17;;;19.90;99.90;;;;;;5052529;28;20249;-75
2021/06/10 04:06:11;;;;;;;24.30;19.10;;;19.90;99.90;;;;;;5065098;28;20213;-74
2021/06/10 04:08:37;;;;;;;25.10;19.50;;;19.90;99.90;;;;;;5069171;28;20285;-75
2021/06/10 04:11:02;;;;;;;20.20;17.27;;;19.90;99.90;;;;;;5084943;28;20527;-75
2021/06/10 04:13:28;;;;;;;23.23;17.57;;;19.90;99.90;;;;;;5085913;28;20682;-75
2021/06/10 04:15:54;;;;;;;22.00;18.57;;;20.00;99.90;;;;;;5067627;28;20288;-74
2021/06/10 04:18:24;;;;;;;21.13;18.60;;;20.00;99.90;;;;;;5067589;28;20246;-74
2021/06/10 04:20:50;;;;;;;22.37;18.80;;;19.90;99.90;;;;;;5068977;28;20781;-74
2021/06/10 04:23:16;;;;;;;24.50;17.70;;;19.90;99.90;;;;;;5064141;28;20535;-74
2021/06/10 04:25:42;;;;;;;23.67;18.70;;;19.90;99.90;;;;;;5069747;28;20456;-74
2021/06/10 04:28:08;;;;;;;23.70;19.40;;;19.90;99.90;;;;;;5082873;28;20978;-75
2021/06/10 04:30:34;;;;;;;24.47;18.63;;;19.90;99.90;;;;;;5069867;28;20264;-74
2021/06/10 04:33:29;;;;;;;26.23;19.70;;;19.80;99.90;;;;;;5083001;28;20457;-74
2021/06/10 04:35:54;;;;;;;17.10;15.00;;;19.80;99.90;;;;;;5084469;28;20252;-74
2021/06/10 04:38:20;;;;;;;20.87;17.10;;;19.90;99.90;;;;;;5069223;28;20877;-74
2021/06/10 04:40:46;;;;;;;22.60;17.63;;;19.90;99.90;;;;;;5069741;28;20229;-74
2021/06/10 04:43:12;;;;;;;24.73;17.17;;;19.90;99.90;;;;;;5066933;28;20296;-74
2021/06/10 04:45:38;;;;;;;19.30;16.10;;;19.90;99.90;;;;;;5086481;28;20293;-74
2021/06/10 04:48:04;;;;;;;17.40;15.10;;;19.90;99.90;;;;;;5077272;28;20217;-74
2021/06/10 04:50:31;;;;;;;20.63;15.97;;;19.90;99.90;;;;;;5068194;28;20698;-74
2021/06/10 04:52:57;;;;;;;17.73;15.23;;;19.90;99.90;;;;;;5075158;28;20477;-75
2021/06/10 04:55:23;;;;;;;20.20;17.20;;;19.90;99.90;;;;;;5049524;28;20459;-74
2021/06/10 04:57:49;;;;;;;18.90;16.10;;;19.90;99.90;;;;;;5073293;28;20222;-74
2021/06/10 05:00:15;;;;;;;20.37;17.43;;;19.90;99.90;;;;;;5080342;28;20460;-75
2021/06/10 05:02:41;;;;;;;18.60;16.57;;;19.90;99.90;;;;;;5048773;28;20465;-75
2021/06/10 05:05:08;;;;;;;18.50;16.17;;;19.90;99.90;;;;;;5036969;28;20460;-74
2021/06/10 05:07:34;;;;;;;20.80;16.80;;;19.90;99.90;;;;;;5086342;28;20275;-75
2021/06/10 05:09:59;;;;;;;21.33;17.93;;;19.90;99.90;;;;;;5049637;28;20522;-74
2021/06/10 05:12:26;;;;;;;22.63;17.67;;;19.80;99.90;;;;;;5052385;28;20460;-75
2021/06/10 05:14:52;;;;;;;23.07;18.70;;;19.80;99.90;;;;;;5066943;28;20211;-74
2021/06/10 05:17:18;;;;;;;21.07;16.53;;;19.80;99.90;;;;;;5070682;28;20473;-74
2021/06/10 05:19:43;;;;;;;21.33;18.00;;;19.80;99.90;;;;;;5065860;28;20454;-74
2021/06/10 05:22:10;;;;;;;18.93;15.60;;;19.90;99.90;;;;;;5080807;28;20835;-74
2021/06/10 05:24:35;;;;;;;19.30;17.30;;;19.90;99.90;;;;;;5065901;28;20229;-74
2021/06/10 05:27:02;;;;;;;16.67;14.97;;;19.90;99.90;;;;;;5047956;28;20465;-74
2021/06/10 05:29:27;;;;;;;23.50;16.90;;;19.90;99.90;;;;;;5060282;28;20658;-74
2021/06/10 05:31:53;;;;;;;20.47;16.77;;;19.90;99.90;;;;;;5065412;28;20507;-73
2021/06/10 05:34:19;;;;;;;20.10;17.77;;;20.00;99.90;;;;;;5089341;28;20306;-74
2021/06/10 05:36:45;;;;;;;19.33;16.50;;;20.00;99.90;;;;;;5072089;28;20222;-75
2021/06/10 05:39:11;;;;;;;20.07;17.90;;;20.00;99.90;;;;;;5087535;28;20221;-74
2021/06/10 05:41:37;;;;;;;22.30;18.60;;;20.00;99.90;;;;;;5072697;28;20547;-74
2021/06/10 05:44:03;;;;;;;21.30;17.07;;;20.00;99.90;;;;;;5070903;28;20242;-74
2021/06/10 05:46:29;;;;;;;19.07;16.80;;;20.00;99.90;;;;;;5089289;28;20324;-74
2021/06/10 05:48:54;;;;;;;23.37;19.00;;;20.10;99.90;;;;;;5070742;28;21035;-74
2021/06/10 05:51:21;;;;;;;21.47;16.37;;;20.10;99.90;;;;;;5072348;28;20594;-74
2021/06/10 05:53:46;;;;;;;22.73;16.57;;;20.10;99.90;;;;;;5057670;28;20822;-73
2021/06/10 05:56:12;;;;;;;22.37;17.03;;;20.20;99.90;;;;;;5075585;28;20472;-74
2021/06/10 05:58:38;;;;;;;18.87;16.40;;;20.20;99.90;;;;;;5071570;28;20244;-74
2021/06/10 06:01:03;;;;;;;18.60;15.73;;;20.20;99.90;;;;;;5070839;28;20225;-74
2021/06/10 06:03:32;;;;;;;23.00;17.90;;;20.30;99.90;;;;;;5068154;28;20222;-74
2021/06/10 06:05:58;;;;;;;25.90;18.90;;;20.30;99.90;;;;;;5053929;28;20210;-74
2021/06/10 06:08:24;;;;;;;18.73;14.97;;;20.30;99.90;;;;;;5089115;28;20502;-74
2021/06/10 06:10:52;;;;;;;23.30;18.83;;;20.40;99.90;;;;;;5089136;28;20457;-74
2021/06/10 06:13:23;;;;;;;19.73;17.40;;;20.40;99.90;;;;;;5068729;28;20222;-75
2021/06/10 06:15:50;;;;;;;19.40;17.20;;;20.50;99.90;;;;;;5088701;28;20452;-74
2021/06/10 06:18:19;;;;;;;19.00;16.90;;;20.50;99.90;;;;;;5053782;28;20445;-75
2021/06/10 06:20:45;;;;;;;20.60;16.90;;;20.50;99.90;;;;;;5055492;28;20968;-74
2021/06/10 06:23:11;;;;;;;20.83;18.50;;;20.60;99.90;;;;;;5070658;28;20458;-74
2021/06/10 06:25:36;;;;;;;20.77;18.57;;;20.60;99.90;;;;;;5088418;28;20214;-74
2021/06/10 06:28:02;;;;;;;22.80;17.00;;;20.60;99.90;;;;;;5063288;28;20222;-74
2021/06/10 06:30:28;;;;;;;23.17;17.90;;;20.70;99.90;;;;;;5035428;28;20222;-73
2021/06/10 06:32:53;;;;;;;18.00;16.10;;;20.70;99.90;;;;;;5052439;28;20663;-73
2021/06/10 06:35:19;;;;;;;17.97;14.10;;;20.80;99.90;;;;;;5071748;28;20273;-76
2021/06/10 06:37:45;;;;;;;18.27;16.40;;;20.80;99.90;;;;;;5071392;28;20230;-76
2021/06/10 06:40:11;;;;;;;19.17;16.90;;;20.80;99.90;;;;;;5086846;28;20778;-75
2021/06/10 06:42:37;;;;;;;21.17;16.73;;;20.80;99.90;;;;;;5088078;28;20763;-75
2021/06/10 06:45:05;;;;;;;18.50;16.03;;;20.90;99.90;;;;;;5081428;28;20698;-75
2021/06/10 06:47:30;;;;;;;19.93;16.23;;;20.90;99.90;;;;;;5045746;28;20518;-74
2021/06/10 06:50:03;;;;;;;18.60;16.17;;;21.00;99.90;;;;;;5066532;28;20940;-75
2021/06/10 06:52:29;;;;;;;19.77;15.43;;;21.10;99.90;;;;;;5069921;28;20226;-75
2021/06/10 06:54:55;;;;;;;17.13;15.30;;;21.10;99.90;;;;;;5084925;28;20461;-75
2021/06/10 06:57:20;;;;;;;24.93;17.20;;;21.10;99.90;;;;;;5086532;28;20226;-76
2021/06/10 06:59:46;;;;;;;19.70;16.60;;;21.20;99.90;;;;;;5051507;28;20572;-76
2021/06/10 07:02:11;;;;;;;19.07;16.33;;;21.20;99.90;;;;;;5062176;28;20315;-75
2021/06/10 07:04:37;;;;;;;17.77;15.87;;;21.30;99.90;;;;;;5048629;28;20250;-76
2021/06/10 07:07:03;;;;;;;18.80;16.80;;;21.30;99.90;;;;;;5046764;28;20231;-76
2021/06/10 07:09:29;;;;;;;19.13;16.47;;;21.40;99.90;;;;;;5048874;28;20219;-76
2021/06/10 07:11:54;;;;;;;16.83;15.30;;;21.40;99.90;;;;;;5059219;28;20690;-76
2021/06/10 07:14:20;;;;;;;17.63;15.77;;;21.40;99.90;;;;;;5081583;28;20573;-76
2021/06/10 07:16:45;;;;;;;17.60;15.80;;;21.50;99.90;;;;;;5067445;28;20230;-74
2021/06/10 07:19:11;;;;;;;18.77;16.00;;;21.60;99.90;;;;;;5065909;28;20218;-75
2021/06/10 07:21:48;;;;;;;16.87;14.70;;;21.60;99.90;;;;;;5051353;28;20252;-75
2021/06/10 07:24:15;;;;;;;16.67;15.00;;;21.70;99.90;;;;;;5049747;28;20252;-76
2021/06/10 07:26:43;;;;;;;17.10;14.97;;;21.80;99.90;;;;;;5086770;28;20461;-75
2021/06/10 07:29:10;;;;;;;14.83;13.43;;;21.80;99.90;;;;;;5079314;28;20480;-76
2021/06/10 07:31:35;;;;;;;14.90;13.40;;;21.80;99.90;;;;;;5063626;28;20456;-75
2021/06/10 07:34:04;;;;;;;15.00;13.40;;;21.90;99.90;;;;;;5066046;28;20811;-74
2021/06/10 07:36:31;;;;;;;16.80;15.10;;;22.00;99.90;;;;;;5068229;28;20242;-73
2021/06/10 07:38:56;;;;;;;19.00;16.40;;;22.10;99.90;;;;;;5076628;28;20532;-76
2021/06/10 07:41:22;;;;;;;15.23;13.67;;;22.10;99.90;;;;;;5065064;28;20960;-75
2021/06/10 07:43:48;;;;;;;15.57;14.00;;;22.20;99.90;;;;;;5070689;28;20208;-75
2021/06/10 07:46:13;;;;;;;15.83;12.43;;;22.20;99.90;;;;;;5073556;28;20710;-76
2021/06/10 07:48:39;;;;;;;15.70;13.93;;;22.30;99.90;;;;;;5066260;28;20241;-76
2021/06/10 07:51:06;;;;;;;14.10;12.70;;;22.50;99.90;;;;;;5055212;28;20305;-76
2021/06/10 07:53:36;;;;;;;16.87;15.07;;;22.60;99.90;;;;;;5076860;28;20701;-75
2021/06/10 07:56:04;;;;;;;15.90;13.50;;;22.70;99.90;;;;;;5072982;28;21018;-76
2021/06/10 07:58:31;;;;;;;14.30;12.87;;;22.80;99.90;;;;;;5073123;28;20473;-75
2021/06/10 08:00:58;;;;;;;16.30;14.40;;;22.80;99.90;;;;;;5078997;28;20975;-75
2021/06/10 08:03:23;;;;;;;15.93;13.70;;;22.90;99.90;;;;;;5055820;28;20460;-76
2021/06/10 08:05:50;;;;;;;15.00;13.60;;;22.90;99.90;;;;;;5068787;28;20452;-75
2021/06/10 08:08:16;;;;;;;13.97;12.70;;;23.00;99.90;;;;;;5081055;28;20301;-76
2021/06/10 08:10:45;;;;;;;13.10;10.90;;;23.10;99.90;;;;;;5083184;28;20456;-76
2021/06/10 08:13:11;;;;;;;14.07;12.53;;;23.20;99.90;;;;;;5063772;28;20459;-76
2021/06/10 08:15:37;;;;;;;15.27;13.83;;;23.30;99.90;;;;;;5043530;28;20869;-75
2021/06/10 08:18:04;;;;;;;11.90;10.80;;;23.40;99.90;;;;;;5062267;28;20552;-76
2021/06/10 08:20:31;;;;;;;13.73;12.43;;;23.50;99.90;;;;;;5072408;28;20468;-76
2021/06/10 08:23:00;;;;;;;14.60;13.10;;;23.60;99.90;;;;;;5076733;28;20559;-76
2021/06/10 08:25:32;;;;;;;14.67;13.13;;;23.70;99.90;;;;;;5042406;28;20870;-75
2021/06/10 08:27:59;;;;;;;14.03;12.53;;;23.80;99.90;;;;;;5070594;28;20507;-76
2021/06/10 08:30:25;;;;;;;13.60;12.30;;;23.90;99.90;;;;;;5055322;28;20456;-75
2021/06/10 08:32:52;;;;;;;13.73;12.33;;;24.10;99.90;;;;;;5082931;28;20459;-76
2021/06/10 08:35:18;;;;;;;14.80;13.40;;;24.20;99.90;;;;;;5062633;28;20457;-76
2021/06/10 08:37:44;;;;;;;14.13;12.80;;;24.30;99.90;;;;;;5080273;28;20877;-76
2021/06/10 08:40:11;;;;;;;21.23;14.97;;;24.40;99.90;;;;;;5049118;28;20530;-76
2021/06/10 08:42:38;;;;;;;12.80;11.60;;;24.50;99.90;;;;;;5049375;28;20226;-76
2021/06/10 08:45:11;;;;;;;14.77;13.43;;;24.60;99.90;;;;;;5046761;28;20524;-75
2021/06/10 08:47:39;;;;;;;13.43;12.30;;;24.80;99.90;;;;;;5084382;28;20471;-76
2021/06/10 08:50:06;;;;;;;15.03;13.70;;;24.80;99.90;;;;;;5078436;28;20497;-76
2021/06/10 08:52:34;;;;;;;13.60;12.20;;;24.90;99.90;;;;;;5080873;28;21106;-76
2021/06/10 08:55:01;;;;;;;13.53;12.33;;;25.00;99.90;;;;;;5081418;28;20982;-76
2021/06/10 08:57:26;;;;;;;13.67;12.50;;;25.20;99.90;;;;;;5050695;28;20491;-76
2021/06/10 08:59:54;;;;;;;13.40;12.00;;;25.30;99.90;;;;;;5082886;28;20455;-76
2021/06/10 09:02:19;;;;;;;12.43;11.33;;;25.40;99.90;;;;;;5086584;28;20304;-75
2021/06/10 09:04:45;;;;;;;13.33;12.23;;;25.40;99.90;;;;;;5051844;28;20542;-76
2021/06/10 09:07:11;;;;;;;13.27;11.90;;;25.50;99.90;;;;;;5049485;28;20299;-76
2021/06/10 09:09:39;;;;;;;15.57;13.97;;;25.60;99.90;;;;;;5071429;28;20214;-75
2021/06/10 09:12:07;;;;;;;12.70;11.40;;;25.70;99.90;;;;;;5069766;28;20214;-75
2021/06/10 09:14:55;;;;;;;12.50;11.50;;;25.70;99.90;;;;;;5085414;28;20441;-76
2021/06/10 09:17:39;;;;;;;12.57;11.33;;;25.90;99.90;;;;;;5071955;28;20467;-76
2021/06/10 09:20:27;;;;;;;12.67;11.57;;;26.10;99.90;;;;;;5086796;28;20460;-75
2021/06/10 09:23:10;;;;;;;12.13;10.97;;;26.10;99.90;;;;;;5084515;28;20455;-76
2021/06/10 09:25:36;;;;;;;11.07;10.07;;;26.20;99.90;;;;;;5087172;28;20475;-76
2021/06/10 09:28:05;;;;;;;11.40;10.40;;;26.20;99.90;;;;;;5068104;28;20471;-76
2021/06/10 09:30:43;;;;;;;10.00;9.17;;;26.30;99.90;;;;;;5076639;28;20452;-77
2021/06/10 09:33:12;;;;;;;9.33;8.53;;;26.40;99.90;;;;;;5081809;28;20486;-77
2021/06/10 09:35:40;;;;;;;11.40;10.20;;;26.50;99.90;;;;;;5075973;28;20478;-77
2021/06/10 09:38:10;;;;;;;9.00;8.10;;;26.60;99.90;;;;;;5086419;28;20574;-77
2021/06/10 09:40:36;;;;;;;9.17;8.30;;;26.60;99.90;;;;;;5088998;28;20457;-77
2021/06/10 09:43:02;;;;;;;8.47;7.67;;;26.70;99.90;;;;;;5085690;28;20452;-76
2021/06/10 09:45:29;;;;;;;8.50;7.90;;;26.70;99.90;;;;;;5068579;28;20455;-76
2021/06/10 09:48:00;;;;;;;9.47;8.47;;;26.80;99.90;;;;;;5086413;28;20542;-78
2021/06/10 09:50:32;;;;;;;8.07;7.40;;;26.90;99.90;;;;;;5089869;28;20509;-77
2021/06/10 09:53:04;;;;;;;8.23;7.60;;;27.00;99.90;;;;;;5083482;28;20467;-77
2021/06/10 09:55:41;;;;;;;8.03;7.43;;;27.00;99.90;;;;;;5087905;28;20887;-76
2021/06/10 09:58:13;;;;;;;9.63;8.83;;;27.10;99.90;;;;;;5081061;28;20956;-78
2021/06/10 10:00:50;;;;;;;9.40;8.60;;;27.20;99.90;;;;;;5102463;28;20539;-77
2021/06/10 10:03:28;;;;;;;8.73;7.93;;;27.20;99.90;;;;;;5068182;28;20449;-78
2021/06/10 10:06:06;;;;;;;8.30;7.60;;;27.30;99.90;;;;;;5069541;28;20454;-78
2021/06/10 10:08:34;;;;;;;8.43;7.60;;;27.30;99.90;;;;;;5089484;28;20463;-78
2021/06/10 10:11:02;;;;;;;8.37;7.60;;;27.40;99.90;;;;;;5070229;28;20929;-78
2021/06/10 10:13:30;;;;;;;10.67;9.67;;;27.50;99.90;;;;;;5068460;28;20441;-78
2021/06/10 10:16:00;;;;;;;9.47;8.77;;;27.50;99.40;;;;;;5068138;28;20506;-77
2021/06/10 10:18:26;;;;;;;9.13;8.30;;;27.60;99.90;;;;;;5070329;28;20451;-77
2021/06/10 10:20:52;;;;;;;9.10;8.20;;;27.70;99.90;;;;;;5055699;28;20935;-78
2021/06/10 10:23:18;;;;;;;10.90;9.97;;;27.70;99.40;;;;;;5049394;28;20453;-78
2021/06/10 10:25:44;;;;;;;9.40;8.50;;;27.70;99.00;;;;;;5069023;28;20207;-77
2021/06/10 10:28:11;;;;;;;10.10;9.20;;;27.80;99.10;;;;;;5050747;28;20226;-77
2021/06/10 10:30:38;;;;;;;11.20;10.20;;;28.00;99.70;;;;;;5086823;28;20312;-78
2021/06/10 10:33:21;;;;;;;9.20;8.60;;;28.10;99.70;;;;;;5085767;28;20217;-75
2021/06/10 10:35:59;;;;;;;9.90;9.17;;;28.10;99.60;;;;;;5086938;28;20466;-78
2021/06/10 10:38:39;;;;;;;8.88;8.18;;;28.20;99.60;;;;;;5088113;28;20265;-78
2021/06/10 10:41:15;;;;;;;9.65;8.75;;;28.30;99.60;;;;;;5070308;28;20218;-76
2021/06/10 10:43:41;;;;;;;9.47;8.60;;;28.40;99.60;;;;;;5083429;28;20206;-77
2021/06/10 10:46:11;;;;;;;9.07;8.38;;;28.50;99.70;;;;;;5078137;28;20224;-78
2021/06/10 10:48:42;;;;;;;10.88;9.80;;;28.70;99.30;;;;;;5058312;28;20210;-76
2021/06/10 10:51:30;;;;;;;9.32;8.45;;;28.80;99.00;;;;;;5079787;28;20293;-77
2021/06/10 10:54:00;;;;;;;12.23;11.23;;;28.90;99.50;;;;;;5078885;28;20296;-78
2021/06/10 10:56:43;;;;;;;10.77;9.90;;;28.90;99.20;;;;;;5071400;28;20222;-77
2021/06/10 10:59:13;;;;;;;10.40;9.40;;;28.90;99.40;;;;;;5069925;28;20253;-78
2021/06/10 11:01:39;;;;;;;10.13;9.27;;;28.90;98.50;;;;;;5064216;28;20221;-76
2021/06/10 11:04:05;;;;;;;10.90;10.02;;;29.00;98.50;;;;;;5082564;28;20252;-77
2021/06/10 11:06:33;;;;;;;10.18;9.38;;;29.00;98.50;;;;;;5087813;28;20289;-78
2021/06/10 11:09:14;;;;;;;10.80;10.00;;;29.10;98.50;;;;;;5053827;28;20323;-78
2021/06/10 11:12:05;;;;;;;11.15;10.15;;;29.10;98.50;;;;;;5090928;28;20247;-77
2021/06/10 11:14:43;;;;;;;10.32;9.45;;;29.10;98.20;;;;;;5091140;28;20278;-78
2021/06/10 11:17:31;;;;;;;9.90;9.00;;;29.20;97.50;;;;;;5089957;28;20241;-78
2021/06/10 11:20:05;;;;;;;9.32;8.52;;;29.30;96.40;;;;;;5089337;28;20254;-78
2021/06/10 11:22:39;;;;;;;10.23;9.25;;;29.40;96.10;;;;;;5084252;28;20214;-77
2021/06/10 11:25:40;;;;;;;9.95;9.15;;;29.50;95.10;;;;;;5087950;28;20217;-77
2021/06/10 11:28:08;;;;;;;9.88;9.00;;;29.20;95.60;;;;;;5071211;28;20217;-76
2021/06/10 11:30:36;;;;;;;10.18;9.27;;;29.30;96.20;;;;;;5090115;28;20214;-77
2021/06/10 11:33:17;;;;;;;8.38;7.78;;;29.50;95.50;;;;;;5087509;28;20305;-77
2021/06/10 11:36:06;;;;;;;10.38;9.57;;;29.60;95.50;;;;;;5067111;28;20628;-77
2021/06/10 11:38:40;;;;;;;9.32;8.60;;;29.70;95.10;;;;;;5070212;28;20218;-77
2021/06/10 11:41:16;;;;;;;10.38;9.38;;;29.80;94.50;;;;;;5065522;28;20315;-76
2021/06/10 11:43:44;;;;;;;11.02;10.13;;;29.90;94.40;;;;;;5066846;28;20229;-77
2021/06/10 11:46:11;;;;;;;9.30;8.55;;;29.90;93.50;;;;;;5052386;28;20336;-77
2021/06/10 11:48:46;;;;;;;10.82;9.98;;;29.80;94.50;;;;;;5070668;28;20306;-77
2021/06/10 11:51:19;;;;;;;10.93;10.02;;;29.50;93.60;;;;;;5068767;28;20232;-77
2021/06/10 11:53:45;;;;;;;10.18;9.18;;;29.50;94.10;;;;;;5069743;28;20274;-77
2021/06/10 11:56:11;;;;;;;13.38;10.25;;;29.60;93.90;;;;;;5085635;28;20226;-77
2021/06/10 11:58:37;;;;;;;9.30;8.57;;;29.70;94.10;;;;;;5087435;28;20217;-77
2021/06/10 12:01:10;;;;;;;9.70;8.98;;;29.90;94.50;;;;;;5083149;28;20240;-77
2021/06/10 12:03:37;;;;;;;9.63;8.85;;;30.00;94.40;;;;;;5084532;28;20752;-77
2021/06/10 12:06:07;;;;;;;11.45;10.50;;;30.00;93.80;;;;;;5081821;28;20222;-77
2021/06/10 12:08:35;;;;;;;10.55;9.75;;;29.90;93.00;;;;;;5080603;28;20543;-77
2021/06/10 12:11:08;;;;;;;11.20;10.23;;;29.90;93.20;;;;;;5064748;28;20283;-77
2021/06/10 12:13:39;;;;;;;12.77;11.57;;;30.00;93.80;;;;;;5061137;28;20214;-76
2021/06/10 12:16:07;;;;;;;10.73;9.75;;;30.10;93.60;;;;;;5072296;28;20206;-75
2021/06/10 12:18:35;;;;;;;10.40;9.60;;;30.20;92.30;;;;;;5077215;28;20206;-75
2021/06/10 12:21:04;;;;;;;10.82;9.73;;;30.00;92.30;;;;;;5059598;28;20237;-76
2021/06/10 12:23:36;;;;;;;10.68;9.77;;;30.00;92.70;;;;;;5076891;28;20288;-75
2021/06/10 12:26:06;;;;;;;11.23;10.35;;;30.20;92.80;;;;;;5083001;28;20202;-75
2021/06/10 12:28:33;;;;;;;12.65;11.48;;;30.30;92.50;;;;;;5080907;28;20206;-75
2021/06/10 12:31:10;;;;;;;10.23;9.23;;;30.30;92.50;;;;;;5083503;28;20209;-75
2021/06/10 12:33:37;;;;;;;9.95;9.18;;;30.50;93.20;;;;;;5081100;28;20225;-75
2021/06/10 12:36:05;;;;;;;9.70;9.00;;;30.70;93.50;;;;;;5063552;28;20730;-75
2021/06/10 12:38:40;;;;;;;11.23;10.32;;;30.70;92.50;;;;;;5083729;28;20202;-76
2021/06/10 12:41:32;;;;;;;10.80;10.00;;;30.90;92.10;;;;;;5063837;28;20229;-76